createdAt,value
2023-04-28T00:01:46.029Z,48.54
2023-04-28T00:04:13.596Z,48.44
2023-04-28T00:08:13.257Z,52.70
2023-04-28T00:10:40.469Z,48.65
2023-04-28T00:13:07.632Z,48.48
2023-04-28T00:15:34.809Z,48.17
2023-04-28T00:18:01.917Z,47.82
2023-04-28T00:20:28.951Z,48.06
2023-04-28T00:22:56.010Z,47.67
2023-04-28T00:25:23.367Z,47.42
2023-04-28T00:27:50.474Z,47.75
2023-04-28T00:30:17.880Z,47.83
2023-04-28T00:32:45.015Z,47.56
2023-04-28T00:35:12.280Z,47.57
2023-04-28T00:37:39.621Z,47.82
2023-04-28T00:40:07.801Z,47.65
2023-04-28T00:42:35.098Z,47.23
2023-04-28T00:45:06.158Z,47.30
2023-04-28T00:47:34.729Z,47.17
2023-04-28T00:50:02.400Z,47.10
2023-04-28T00:52:29.976Z,47.57
2023-04-28T00:54:57.126Z,47.57
2023-04-28T00:57:24.155Z,47.22
2023-04-28T00:59:51.282Z,47.28
2023-04-28T01:02:20.515Z,47.31
2023-04-28T01:04:48.507Z,46.98
2023-04-28T01:07:15.784Z,47.14
2023-04-28T01:09:44.239Z,47.50
2023-04-28T01:12:12.392Z,47.42
2023-04-28T01:14:44.432Z,47.14
2023-04-28T01:17:11.867Z,47.56
2023-04-28T01:19:39.023Z,47.02
2023-04-28T01:22:06.792Z,47.31
2023-04-28T01:24:34.043Z,47.53
2023-04-28T01:27:03.824Z,47.28
2023-04-28T01:29:31.283Z,47.58
2023-04-28T01:31:58.529Z,46.98
2023-04-28T01:34:25.672Z,47.04
2023-04-28T01:36:52.900Z,46.88
2023-04-28T01:39:19.929Z,47.03
2023-04-28T01:41:47.202Z,47.44
2023-04-28T01:44:14.638Z,47.00
2023-04-28T01:46:42.039Z,46.75
2023-04-28T01:49:09.139Z,46.00
2023-04-28T01:51:36.179Z,46.68
2023-04-28T01:54:03.452Z,46.63
2023-04-28T01:56:30.579Z,46.78
2023-04-28T01:58:58.129Z,46.60
2023-04-28T02:01:25.638Z,46.67
2023-04-28T02:03:53.150Z,46.94
2023-04-28T02:06:20.747Z,46.64
2023-04-28T02:08:47.769Z,46.93
2023-04-28T02:11:14.821Z,46.72
2023-04-28T02:13:41.923Z,46.83
2023-04-28T02:16:09.937Z,46.57
2023-04-28T02:18:37.865Z,47.13
2023-04-28T02:21:12.070Z,46.88
2023-04-28T02:23:39.856Z,47.14
2023-04-28T02:26:06.948Z,46.69
2023-04-28T02:28:34.138Z,46.52
2023-04-28T02:31:09.014Z,46.49
2023-04-28T02:33:36.674Z,46.44
2023-04-28T02:36:04.528Z,46.45
2023-04-28T02:38:31.694Z,46.10
2023-04-28T02:41:00.319Z,46.09
2023-04-28T02:43:31.430Z,46.34
2023-04-28T02:45:58.401Z,46.12
2023-04-28T02:48:26.215Z,46.16
2023-04-28T02:50:53.478Z,45.70
2023-04-28T02:53:21.089Z,45.38
2023-04-28T02:55:48.752Z,45.62
2023-04-28T02:58:16.338Z,45.48
2023-04-28T03:00:43.412Z,45.56
2023-04-28T03:03:10.968Z,45.26
2023-04-28T03:05:38.228Z,45.66
2023-04-28T03:08:06.395Z,45.49
2023-04-28T03:10:33.660Z,45.53
2023-04-28T03:13:01.151Z,45.75
2023-04-28T03:15:29.170Z,45.46
2023-04-28T03:17:56.474Z,45.41
2023-04-28T03:20:24.549Z,45.23
2023-04-28T03:22:51.875Z,45.23
2023-04-28T03:25:19.029Z,45.34
2023-04-28T03:27:51.108Z,45.30
2023-04-28T03:30:18.301Z,45.21
2023-04-28T03:32:46.567Z,44.78
2023-04-28T03:35:13.967Z,45.45
2023-04-28T03:37:41.463Z,45.47
2023-04-28T03:40:09.467Z,45.25
2023-04-28T03:43:15.444Z,45.25
2023-04-28T03:46:08.951Z,45.08
2023-04-28T03:48:36.294Z,45.07
2023-04-28T03:51:03.660Z,45.20
2023-04-28T03:53:32.023Z,45.28
2023-04-28T03:55:59.363Z,45.41
2023-04-28T03:58:26.562Z,45.52
2023-04-28T04:00:54.400Z,45.12
2023-04-28T04:03:23.236Z,45.17
2023-04-28T04:05:50.881Z,45.03
2023-04-28T04:08:18.440Z,45.10
2023-04-28T04:10:45.573Z,45.02
2023-04-28T04:13:12.934Z,44.83
2023-04-28T04:15:41.349Z,44.32
2023-04-28T04:18:08.963Z,43.98
2023-04-28T04:20:53.897Z,44.50
2023-04-28T04:23:21.118Z,44.76
2023-04-28T04:25:48.991Z,44.56
2023-04-28T04:28:16.694Z,44.67
2023-04-28T04:30:43.870Z,44.91
2023-04-28T04:33:10.944Z,44.68
2023-04-28T04:35:38.178Z,44.52
2023-04-28T04:38:05.317Z,44.65
2023-04-28T04:40:33.058Z,44.48
2023-04-28T04:43:01.290Z,44.46
2023-04-28T04:45:30.892Z,44.57
2023-04-28T04:47:58.364Z,44.13
2023-04-28T04:50:25.759Z,44.20
2023-04-28T04:52:56.777Z,43.89
2023-04-28T04:55:23.981Z,43.66
2023-04-28T04:57:52.589Z,43.94
2023-04-28T05:00:25.763Z,44.19
2023-04-28T05:02:53.359Z,44.02
2023-04-28T05:05:22.868Z,43.78
2023-04-28T05:08:04.443Z,43.42
2023-04-28T05:10:31.935Z,43.26
2023-04-28T05:12:59.090Z,43.74
2023-04-28T05:15:26.830Z,43.84
2023-04-28T05:18:14.404Z,43.26
2023-04-28T05:20:41.649Z,43.37
2023-04-28T05:23:09.646Z,43.77
2023-04-28T05:25:37.044Z,43.68
2023-04-28T05:28:07.764Z,43.43
2023-04-28T05:30:34.999Z,43.21
2023-04-28T05:33:02.357Z,43.44
2023-04-28T05:35:31.345Z,43.43
2023-04-28T05:37:59.553Z,43.05
2023-04-28T05:40:28.248Z,43.08
2023-04-28T05:42:56.438Z,43.03
2023-04-28T05:45:23.537Z,42.90
2023-04-28T05:47:51.034Z,43.20
2023-04-28T05:50:18.325Z,42.61
2023-04-28T05:52:45.468Z,42.74
2023-04-28T05:55:12.698Z,42.53
2023-04-28T05:57:49.817Z,42.82
2023-04-28T06:00:21.522Z,42.23
2023-04-28T06:02:49.961Z,41.71
2023-04-28T06:05:17.870Z,41.96
2023-04-28T06:07:48.216Z,42.01
2023-04-28T06:10:17.059Z,41.62
2023-04-28T06:12:44.157Z,41.76
2023-04-28T06:15:11.820Z,41.56
2023-04-28T06:17:39.102Z,41.27
2023-04-28T06:20:07.789Z,41.16
2023-04-28T06:22:34.778Z,40.94
2023-04-28T06:25:01.824Z,40.23
2023-04-28T06:27:34.759Z,40.76
2023-04-28T06:30:01.861Z,40.21
2023-04-28T06:32:29.229Z,39.85
2023-04-28T06:34:58.374Z,40.11
2023-04-28T06:37:26.267Z,39.96
2023-04-28T06:39:53.493Z,39.85
2023-04-28T06:42:20.770Z,39.74
2023-04-28T06:44:59.541Z,39.41
2023-04-28T06:47:28.033Z,39.31
2023-04-28T06:49:55.473Z,39.44
2023-04-28T06:52:27.116Z,39.11
2023-04-28T06:54:59.992Z,38.64
2023-04-28T06:57:27.011Z,38.31
2023-04-28T06:59:55.025Z,37.56
2023-04-28T07:02:22.358Z,37.95
2023-04-28T07:04:49.958Z,38.14
2023-04-28T07:07:17.001Z,37.29
2023-04-28T07:09:44.949Z,36.48
2023-04-28T07:12:12.206Z,36.78
2023-04-28T07:14:39.508Z,36.45
2023-04-28T07:17:06.704Z,36.10
2023-04-28T07:19:33.951Z,35.42
2023-04-28T07:22:00.992Z,34.72
2023-04-28T07:24:28.591Z,34.64
2023-04-28T07:26:56.001Z,34.51
2023-04-28T07:29:23.725Z,34.57
2023-04-28T07:31:50.907Z,34.49
2023-04-28T07:34:18.387Z,33.77
2023-04-28T07:36:46.013Z,33.83
2023-04-28T07:39:13.140Z,34.05
2023-04-28T07:41:40.704Z,34.36
2023-04-28T07:44:08.488Z,33.35
2023-04-28T07:46:35.630Z,33.38
2023-04-28T07:49:03.332Z,33.19
2023-04-28T07:51:31.866Z,32.93
2023-04-28T07:53:59.059Z,33.18
2023-04-28T07:56:26.760Z,32.43
2023-04-28T07:58:53.768Z,32.89
2023-04-28T08:01:20.751Z,32.98
2023-04-28T08:03:48.163Z,33.41
2023-04-28T08:06:15.758Z,33.37
2023-04-28T08:08:43.073Z,33.29
2023-04-28T08:11:10.174Z,32.93
2023-04-28T08:13:37.256Z,32.60
2023-04-28T08:16:04.756Z,32.63
2023-04-28T08:18:32.138Z,32.40
2023-04-28T08:20:59.212Z,32.16
2023-04-28T08:23:28.531Z,31.88
2023-04-28T08:25:55.584Z,30.85
2023-04-28T08:28:22.709Z,31.17
2023-04-28T08:30:49.924Z,31.17
2023-04-28T08:33:17.235Z,30.96
2023-04-28T08:35:44.356Z,31.12
2023-04-28T08:38:14.290Z,31.37
2023-04-28T08:40:43.134Z,30.75
2023-04-28T08:43:15.138Z,30.25
2023-04-28T08:45:43.219Z,30.53
2023-04-28T08:48:20.796Z,30.52
2023-04-28T08:50:55.011Z,30.56
2023-04-28T08:53:26.748Z,29.91
2023-04-28T08:55:57.057Z,29.98
2023-04-28T08:58:25.154Z,30.24
2023-04-28T09:00:53.878Z,30.06
2023-04-28T09:03:21.811Z,29.43
2023-04-28T09:05:49.417Z,29.44
2023-04-28T09:08:16.560Z,29.49
2023-04-28T09:10:43.903Z,29.55
2023-04-28T09:13:10.961Z,29.74
2023-04-28T09:15:41.467Z,28.84
2023-04-28T09:18:08.759Z,29.17
2023-04-28T09:20:36.428Z,28.67
2023-04-28T09:23:17.688Z,29.08
2023-04-28T09:26:00.736Z,28.94
2023-04-28T09:28:28.540Z,29.19
2023-04-28T09:30:55.623Z,29.26
2023-04-28T09:33:22.863Z,28.80
2023-04-28T09:35:50.278Z,29.25
2023-04-28T09:38:17.625Z,29.04
2023-04-28T09:40:54.817Z,28.51
2023-04-28T09:43:33.031Z,28.60
2023-04-28T09:46:04.700Z,28.07
2023-04-28T09:48:36.463Z,28.18
2023-04-28T09:51:08.122Z,28.10
2023-04-28T09:53:35.876Z,28.50
2023-04-28T09:56:03.786Z,28.02
2023-04-28T09:58:30.927Z,28.55
2023-04-28T10:00:59.162Z,28.08
2023-04-28T10:03:29.591Z,28.12
2023-04-28T10:05:58.648Z,28.18
2023-04-28T10:08:27.573Z,27.90
2023-04-28T10:10:54.930Z,28.03
2023-04-28T10:13:22.952Z,27.93
2023-04-28T10:15:50.562Z,27.72
2023-04-28T10:18:17.563Z,27.68
2023-04-28T10:20:46.303Z,28.10
2023-04-28T10:23:38.518Z,27.39
2023-04-28T10:26:10.564Z,27.10
2023-04-28T10:28:37.743Z,27.58
2023-04-28T10:31:35.197Z,28.00
2023-04-28T10:34:22.217Z,28.22
2023-04-28T10:36:54.827Z,28.04
2023-04-28T10:39:21.988Z,27.23
2023-04-28T10:41:49.458Z,27.34
2023-04-28T10:44:29.291Z,27.13
2023-04-28T10:47:04.012Z,27.03
2023-04-28T10:49:59.273Z,27.21
2023-04-28T10:52:41.497Z,26.18
2023-04-28T10:55:36.637Z,27.31
2023-04-28T10:58:17.681Z,27.23
2023-04-28T11:00:48.445Z,27.24
2023-04-28T11:03:51.402Z,26.62
2023-04-28T11:06:35.795Z,26.71
2023-04-28T11:09:15.628Z,26.92
2023-04-28T11:11:56.345Z,26.85
2023-04-28T11:14:23.496Z,26.79
2023-04-28T11:16:56.595Z,26.68
2023-04-28T11:19:31.026Z,26.30
2023-04-28T11:21:59.385Z,26.30
2023-04-28T11:24:27.524Z,25.98
2023-04-28T11:26:54.793Z,25.95
2023-04-28T11:29:33.617Z,25.67
2023-04-28T11:32:01.086Z,25.79
2023-04-28T11:34:28.936Z,25.96
2023-04-28T11:36:56.155Z,26.17
2023-04-28T11:39:30.425Z,26.08
2023-04-28T11:42:02.554Z,25.59
2023-04-28T11:44:30.856Z,26.14
2023-04-28T11:47:02.613Z,25.78
2023-04-28T11:49:31.563Z,26.23
2023-04-28T11:52:00.561Z,26.09
2023-04-28T11:54:28.604Z,25.93
2023-04-28T11:56:57.685Z,25.63
2023-04-28T11:59:31.498Z,25.74
2023-04-28T12:01:59.822Z,26.00
2023-04-28T12:04:38.079Z,25.80
2023-04-28T12:07:16.433Z,25.81
2023-04-28T12:09:45.971Z,25.16
2023-04-28T12:12:40.122Z,25.38
2023-04-28T12:15:16.413Z,25.21
2023-04-28T12:17:45.729Z,25.32
2023-04-28T12:20:33.424Z,25.53
2023-04-28T12:24:22.686Z,29.02
2023-04-28T12:26:49.834Z,27.24
2023-04-28T12:29:37.438Z,26.26
2023-04-28T12:32:05.828Z,25.51
2023-04-28T12:34:33.659Z,25.54
2023-04-28T12:37:01.815Z,26.04
2023-04-28T12:39:29.215Z,26.09
2023-04-28T12:41:56.314Z,25.97
2023-04-28T12:44:23.628Z,28.13
2023-04-28T12:46:51.786Z,27.43
2023-04-28T12:49:18.996Z,26.44
2023-04-28T12:51:46.283Z,28.33
2023-04-28T12:54:14.639Z,28.46
2023-04-28T12:56:41.693Z,28.79
2023-04-28T12:59:08.777Z,28.51
2023-04-28T13:01:35.929Z,28.93
2023-04-28T13:04:03.258Z,29.06
2023-04-28T13:06:31.118Z,28.78
2023-04-28T13:08:58.451Z,28.80
2023-04-28T13:11:27.369Z,28.33
2023-04-28T13:13:54.605Z,26.08
2023-04-28T13:16:22.355Z,25.64
2023-04-28T13:18:49.629Z,28.16
2023-04-28T13:21:17.528Z,28.18
2023-04-28T13:23:44.610Z,27.26
2023-04-28T13:26:11.766Z,28.04
2023-04-28T13:28:39.179Z,28.59
2023-04-28T13:31:06.632Z,28.08
2023-04-28T13:33:33.735Z,28.35
2023-04-28T13:36:00.862Z,27.43
2023-04-28T13:38:28.197Z,25.75
2023-04-28T13:40:55.622Z,25.36
2023-04-28T13:43:23.415Z,25.15
2023-04-28T13:45:50.834Z,24.57
2023-04-28T13:48:18.997Z,24.61
2023-04-28T13:50:46.523Z,26.15
2023-04-28T13:53:13.905Z,24.91
2023-04-28T13:55:41.116Z,26.44
2023-04-28T13:58:08.203Z,25.91
2023-04-28T14:00:35.200Z,25.24
2023-04-28T14:03:02.694Z,27.32
2023-04-28T14:05:36.097Z,27.89
2023-04-28T14:08:10.427Z,28.08
2023-04-28T14:10:37.485Z,27.72
2023-04-28T14:13:04.501Z,27.70
2023-04-28T14:15:32.767Z,27.40
2023-04-28T14:17:59.905Z,27.77
2023-04-28T14:20:28.115Z,27.94
2023-04-28T14:22:55.440Z,27.94
2023-04-28T14:25:22.492Z,28.03
2023-04-28T14:27:50.157Z,28.25
2023-04-28T14:30:17.591Z,27.97
2023-04-28T14:32:44.716Z,28.27
2023-04-28T14:35:12.663Z,27.98
2023-04-28T14:37:39.895Z,28.49
2023-04-28T14:40:07.830Z,28.10
2023-04-28T14:42:36.384Z,28.14
2023-04-28T14:45:07.556Z,28.06
2023-04-28T14:47:35.112Z,26.99
2023-04-28T14:50:02.245Z,26.60
2023-04-28T14:52:30.731Z,26.43
2023-04-28T14:54:58.040Z,26.40
2023-04-28T14:57:25.861Z,27.06
2023-04-28T14:59:53.086Z,27.25
2023-04-28T15:02:21.823Z,28.03
2023-04-28T15:04:49.190Z,27.84
2023-04-28T15:07:16.642Z,28.07
2023-04-28T15:09:44.103Z,28.39
2023-04-28T15:12:11.156Z,27.02
2023-04-28T15:14:38.353Z,27.42
2023-04-28T15:17:05.583Z,26.05
2023-04-28T15:19:32.646Z,25.79
2023-04-28T15:22:00.008Z,26.28
2023-04-28T15:24:27.011Z,26.24
2023-04-28T15:26:54.576Z,26.81
2023-04-28T15:29:22.799Z,26.80
2023-04-28T15:31:50.732Z,27.10
2023-04-28T15:34:18.207Z,26.64
2023-04-28T15:36:45.428Z,26.15
2023-04-28T15:39:12.725Z,26.81
2023-04-28T15:41:40.031Z,26.71
2023-04-28T15:44:07.647Z,27.24
2023-04-28T15:46:34.746Z,27.21
2023-04-28T15:49:02.420Z,27.33
2023-04-28T15:51:29.935Z,27.57
2023-04-28T15:53:57.319Z,27.36
2023-04-28T15:56:24.681Z,27.38
2023-04-28T15:58:52.703Z,26.08
2023-04-28T16:01:19.780Z,25.24
2023-04-28T16:03:48.248Z,24.93
2023-04-28T16:06:15.692Z,25.68
2023-04-28T16:08:43.192Z,27.36
2023-04-28T16:11:17.870Z,27.89
2023-04-28T16:13:45.371Z,28.14
2023-04-28T16:16:14.795Z,28.46
2023-04-28T16:18:42.100Z,27.76
2023-04-28T16:21:09.201Z,26.14
2023-04-28T16:23:37.280Z,25.91
2023-04-28T16:26:04.538Z,25.93
2023-04-28T16:28:32.326Z,28.04
2023-04-28T16:30:59.699Z,28.54
2023-04-28T16:33:26.890Z,28.38
2023-04-28T16:35:55.964Z,28.71
2023-04-28T16:38:23.058Z,27.40
2023-04-28T16:40:50.991Z,26.53
2023-04-28T16:43:18.623Z,28.85
2023-04-28T16:45:45.716Z,29.06
2023-04-28T16:48:16.256Z,29.30
2023-04-28T16:50:43.374Z,29.53
2023-04-28T16:53:11.044Z,29.73
2023-04-28T16:55:38.376Z,30.05
2023-04-28T16:58:05.918Z,30.13
2023-04-28T17:00:32.974Z,29.92
2023-04-28T17:03:00.295Z,30.10
2023-04-28T17:05:27.688Z,30.04
2023-04-28T17:07:55.283Z,30.23
2023-04-28T17:10:22.800Z,29.01
2023-04-28T17:12:49.902Z,28.66
2023-04-28T17:15:19.918Z,29.82
2023-04-28T17:17:48.779Z,30.03
2023-04-28T17:20:18.208Z,29.96
2023-04-28T17:22:45.244Z,30.43
2023-04-28T17:25:12.863Z,30.56
2023-04-28T17:27:39.979Z,30.77
2023-04-28T17:30:10.253Z,30.70
2023-04-28T17:32:38.243Z,30.95
2023-04-28T17:35:06.198Z,30.97
2023-04-28T17:37:34.102Z,30.94
2023-04-28T17:40:01.642Z,31.24
2023-04-28T17:42:30.338Z,31.15
2023-04-28T17:44:57.542Z,29.28
2023-04-28T17:47:24.676Z,30.98
2023-04-28T17:49:52.036Z,31.57
2023-04-28T17:52:20.060Z,31.68
2023-04-28T17:54:47.298Z,32.31
2023-04-28T17:57:14.691Z,32.50
2023-04-28T17:59:42.751Z,32.57
2023-04-28T18:02:10.738Z,32.72
2023-04-28T18:04:38.370Z,32.92
2023-04-28T18:07:07.495Z,32.87
2023-04-28T18:09:34.780Z,33.02
2023-04-28T18:12:05.460Z,33.41
2023-04-28T18:14:32.625Z,33.81
2023-04-28T18:16:59.767Z,33.55
2023-04-28T18:19:28.022Z,34.45
2023-04-28T18:21:57.135Z,33.64
2023-04-28T18:24:24.859Z,33.61
2023-04-28T18:26:51.958Z,33.50
2023-04-28T18:29:20.554Z,33.76
2023-04-28T18:31:47.773Z,33.61
2023-04-28T18:34:15.232Z,33.67
2023-04-28T18:36:42.355Z,34.46
2023-04-28T18:39:10.274Z,34.26
2023-04-28T18:41:37.990Z,33.79
2023-04-28T18:44:05.110Z,34.71
2023-04-28T18:46:32.924Z,34.59
2023-04-28T18:48:59.995Z,34.85
2023-04-28T18:51:27.242Z,35.03
2023-04-28T18:53:54.318Z,35.51
2023-04-28T18:56:23.830Z,35.67
2023-04-28T18:58:51.477Z,36.18
2023-04-28T19:01:18.784Z,34.47
2023-04-28T19:03:46.159Z,31.76
2023-04-28T19:06:13.958Z,31.65
2023-04-28T19:08:42.977Z,31.38
2023-04-28T19:11:10.736Z,31.26
2023-04-28T19:13:38.042Z,31.91
2023-04-28T19:16:05.634Z,32.94
2023-04-28T19:18:33.253Z,32.67
2023-04-28T19:21:04.394Z,34.39
2023-04-28T19:23:32.598Z,33.17
2023-04-28T19:26:00.211Z,34.21
2023-04-28T19:28:28.855Z,36.83
2023-04-28T19:30:57.228Z,36.87
2023-04-28T19:33:27.100Z,37.71
2023-04-28T19:35:55.471Z,37.06
2023-04-28T19:38:23.474Z,36.08
2023-04-28T19:40:51.139Z,37.31
2023-04-28T19:43:18.291Z,38.08
2023-04-28T19:45:46.834Z,37.68
2023-04-28T19:48:14.655Z,37.72
2023-04-28T19:50:42.321Z,36.62
2023-04-28T19:53:09.611Z,36.53
2023-04-28T19:55:37.105Z,35.86
2023-04-28T19:58:06.083Z,35.61
2023-04-28T20:00:33.243Z,35.70
2023-04-28T20:03:00.441Z,35.62
2023-04-28T20:05:28.985Z,35.51
2023-04-28T20:07:56.503Z,35.63
2023-04-28T20:10:24.491Z,36.04
2023-04-28T20:12:51.563Z,35.96
2023-04-28T20:15:19.742Z,36.39
2023-04-28T20:17:47.345Z,36.22
2023-04-28T20:20:14.569Z,35.92
2023-04-28T20:22:42.113Z,35.83
2023-04-28T20:25:10.884Z,35.84
2023-04-28T20:27:37.947Z,36.00
2023-04-28T20:30:05.923Z,35.90
2023-04-28T20:32:33.167Z,35.91
2023-04-28T20:35:01.810Z,36.13
2023-04-28T20:37:30.193Z,36.16
2023-04-28T20:39:57.264Z,36.37
2023-04-28T20:42:25.093Z,36.27
2023-04-28T20:44:53.015Z,36.20
2023-04-28T20:47:20.444Z,36.10
2023-04-28T20:49:48.333Z,35.78
2023-04-28T20:52:15.422Z,36.31
2023-04-28T20:54:43.839Z,36.18
2023-04-28T20:57:11.397Z,36.14
2023-04-28T20:59:38.611Z,36.37
2023-04-28T21:02:05.770Z,36.16
2023-04-28T21:04:32.957Z,36.61
2023-04-28T21:07:00.301Z,36.66
2023-04-28T21:09:27.377Z,36.58
2023-04-28T21:11:55.260Z,36.89
2023-04-28T21:14:22.496Z,35.72
2023-04-28T21:16:49.994Z,35.42
2023-04-28T21:19:17.545Z,36.50
2023-04-28T21:21:44.582Z,36.46
2023-04-28T21:24:12.701Z,36.60
2023-04-28T21:26:39.942Z,36.44
2023-04-28T21:29:08.293Z,36.80
2023-04-28T21:31:35.433Z,36.76
2023-04-28T21:34:02.429Z,36.66
2023-04-28T21:36:30.750Z,36.52
2023-04-28T21:38:57.858Z,36.63
2023-04-28T21:41:25.595Z,36.79
2023-04-28T21:43:53.113Z,37.04
2023-04-28T21:46:20.199Z,36.94
2023-04-28T21:48:47.563Z,36.86
2023-04-28T21:51:15.565Z,36.51
2023-04-28T21:53:42.788Z,36.60
2023-04-28T21:56:09.804Z,36.78
2023-04-28T21:58:36.826Z,36.73
2023-04-28T22:01:05.159Z,37.09
2023-04-28T22:03:35.192Z,36.96
2023-04-28T22:06:02.528Z,36.90
2023-04-28T22:08:31.008Z,37.12
2023-04-28T22:10:58.295Z,37.08
2023-04-28T22:13:25.677Z,37.15
2023-04-28T22:15:52.830Z,37.27
2023-04-28T22:18:20.485Z,37.29
2023-04-28T22:20:47.989Z,37.32
2023-04-28T22:23:15.301Z,37.40
2023-04-28T22:25:42.656Z,37.09
2023-04-28T22:28:09.802Z,37.48
2023-04-28T22:30:36.954Z,37.54
2023-04-28T22:33:04.036Z,37.56
2023-04-28T22:35:31.379Z,37.40
2023-04-28T22:37:58.518Z,37.37
2023-04-28T22:40:25.704Z,37.46
2023-04-28T22:42:52.751Z,37.64
2023-04-28T22:45:19.905Z,37.80
2023-04-28T22:47:47.121Z,37.71
2023-04-28T22:50:14.353Z,37.66
2023-04-28T22:52:41.653Z,37.75
2023-04-28T22:55:08.977Z,37.77
2023-04-28T22:57:36.635Z,37.76
2023-04-28T23:00:04.203Z,37.71
2023-04-28T23:02:31.425Z,37.76
2023-04-28T23:04:59.242Z,38.14
2023-04-28T23:07:26.272Z,37.98
2023-04-28T23:09:53.482Z,37.95
2023-04-28T23:12:21.327Z,37.90
2023-04-28T23:14:48.448Z,37.77
2023-04-28T23:17:15.539Z,37.90
2023-04-28T23:19:42.501Z,37.90
2023-04-28T23:22:09.552Z,37.96
2023-04-28T23:24:37.346Z,38.14
2023-04-28T23:27:05.143Z,38.42
2023-04-28T23:29:32.981Z,38.39
2023-04-28T23:31:59.968Z,38.23
2023-04-28T23:34:27.209Z,36.47
2023-04-28T23:36:54.299Z,35.74
2023-04-28T23:39:21.938Z,35.70
2023-04-28T23:41:49.093Z,35.63
2023-04-28T23:44:16.136Z,35.43
2023-04-28T23:46:43.582Z,35.77
2023-04-28T23:49:10.653Z,35.71
2023-04-28T23:51:37.737Z,35.72
2023-04-28T23:54:04.807Z,35.91
2023-04-28T23:56:32.109Z,35.82
2023-04-28T23:58:59.260Z,35.65
